createdAt,value
2023-04-12T00:01:02.968Z,3.90
2023-04-12T00:03:30.668Z,4.65
2023-04-12T00:05:57.864Z,4.90
2023-04-12T00:08:26.470Z,4.95
2023-04-12T00:10:53.531Z,5.03
2023-04-12T00:13:20.426Z,5.00
2023-04-12T00:15:47.188Z,5.30
2023-04-12T00:18:14.000Z,5.15
2023-04-12T00:20:41.024Z,4.72
2023-04-12T00:23:09.756Z,4.70
2023-04-12T00:25:39.313Z,5.15
2023-04-12T00:28:06.784Z,4.72
2023-04-12T00:30:33.797Z,4.80
2023-04-12T00:33:00.530Z,5.13
2023-04-12T00:35:27.315Z,5.05
2023-04-12T00:37:54.869Z,4.60
2023-04-12T00:40:22.332Z,5.28
2023-04-12T00:42:49.168Z,5.05
2023-04-12T00:45:16.305Z,5.43
2023-04-12T00:47:43.471Z,5.18
2023-04-12T00:50:11.042Z,5.10
2023-04-12T00:52:39.175Z,5.60
2023-04-12T00:55:07.501Z,5.32
2023-04-12T00:57:37.237Z,6.50
2023-04-12T01:00:06.186Z,6.28
2023-04-12T01:02:34.739Z,5.35
2023-04-12T01:05:02.347Z,5.45
2023-04-12T01:07:38.905Z,5.13
2023-04-12T01:10:08.871Z,5.50
2023-04-12T01:12:38.609Z,5.22
2023-04-12T01:15:12.256Z,5.80
2023-04-12T01:17:47.652Z,5.20
2023-04-12T01:20:23.654Z,5.63
2023-04-12T01:23:08.890Z,5.18
2023-04-12T01:26:03.723Z,5.90
2023-04-12T01:28:34.954Z,5.75
2023-04-12T01:31:03.301Z,5.43
2023-04-12T01:33:31.712Z,5.15
2023-04-12T01:36:00.902Z,5.57
2023-04-12T01:38:28.455Z,5.68
2023-04-12T01:40:56.267Z,5.85
2023-04-12T01:43:22.932Z,5.50
2023-04-12T01:45:49.745Z,5.72
2023-04-12T01:48:17.464Z,5.68
2023-04-12T01:51:02.531Z,6.00
2023-04-12T01:53:39.045Z,6.28
2023-04-12T01:56:09.547Z,5.90
2023-04-12T01:58:39.674Z,6.13
2023-04-12T02:01:08.181Z,6.10
2023-04-12T02:03:37.332Z,6.07
2023-04-12T02:06:06.057Z,6.10
2023-04-12T02:08:33.794Z,6.70
2023-04-12T02:11:00.660Z,6.93
2023-04-12T02:13:27.373Z,6.85
2023-04-12T02:15:54.973Z,6.40
2023-04-12T02:18:21.735Z,7.15
2023-04-12T02:20:50.066Z,7.30
2023-04-12T02:23:16.846Z,8.40
2023-04-12T02:25:46.490Z,7.32
2023-04-12T02:28:13.665Z,8.13
2023-04-12T02:30:41.689Z,8.85
2023-04-12T02:33:09.524Z,9.70
2023-04-12T02:35:37.662Z,8.98
2023-04-12T02:38:07.887Z,10.85
2023-04-12T02:40:38.210Z,10.93
2023-04-12T02:43:05.008Z,10.70
2023-04-12T02:45:31.706Z,10.70
2023-04-12T02:47:58.475Z,11.93
2023-04-12T02:50:25.295Z,11.63
2023-04-12T02:52:52.180Z,11.80
2023-04-12T02:55:19.060Z,11.45
2023-04-12T02:57:45.952Z,11.25
2023-04-12T03:00:13.257Z,11.93
2023-04-12T03:02:41.156Z,11.23
2023-04-12T03:05:08.775Z,10.05
2023-04-12T03:07:38.737Z,11.32
2023-04-12T03:10:09.411Z,10.80
2023-04-12T03:12:36.171Z,10.40
2023-04-12T03:15:03.173Z,11.20
2023-04-12T03:17:29.956Z,11.20
2023-04-12T03:19:58.046Z,11.07
2023-04-12T03:22:26.178Z,11.43
2023-04-12T03:24:52.958Z,10.45
2023-04-12T03:27:19.701Z,9.32
2023-04-12T03:29:46.446Z,10.75
2023-04-12T03:32:13.525Z,10.18
2023-04-12T03:34:40.254Z,10.65
2023-04-12T03:37:07.065Z,10.70
2023-04-12T03:39:33.770Z,11.13
2023-04-12T03:42:00.481Z,10.25
2023-04-12T03:44:27.195Z,9.85
2023-04-12T03:46:55.339Z,10.45
2023-04-12T03:49:22.174Z,11.40
2023-04-12T03:51:50.537Z,10.27
2023-04-12T03:54:17.754Z,10.15
2023-04-12T03:56:46.114Z,10.43
2023-04-12T03:59:14.633Z,9.88
2023-04-12T04:01:41.915Z,10.27
2023-04-12T04:04:08.928Z,10.20
2023-04-12T04:06:36.050Z,10.35
2023-04-12T04:09:02.847Z,10.48
2023-04-12T04:11:29.568Z,9.88
2023-04-12T04:13:56.477Z,10.38
2023-04-12T04:16:23.612Z,11.13
2023-04-12T04:18:50.512Z,10.43
2023-04-12T04:21:17.264Z,10.57
2023-04-12T04:23:45.492Z,10.82
2023-04-12T04:26:12.475Z,11.27
2023-04-12T04:28:45.041Z,10.07
2023-04-12T04:31:12.784Z,11.07
2023-04-12T04:33:40.273Z,11.45
2023-04-12T04:36:07.979Z,11.60
2023-04-12T04:38:34.923Z,12.13
2023-04-12T04:41:02.501Z,10.25
2023-04-12T04:43:30.378Z,10.90
2023-04-12T04:45:57.855Z,10.38
2023-04-12T04:48:24.940Z,11.60
2023-04-12T04:50:52.870Z,10.32
2023-04-12T04:53:22.160Z,10.75
2023-04-12T04:55:49.160Z,9.82
2023-04-12T04:58:16.614Z,11.43
2023-04-12T05:00:46.348Z,11.30
2023-04-12T05:03:13.211Z,11.20
2023-04-12T05:05:40.478Z,10.43
2023-04-12T05:08:07.410Z,11.73
2023-04-12T05:10:34.164Z,10.32
2023-04-12T05:13:00.919Z,11.45
2023-04-12T05:15:27.728Z,10.13
2023-04-12T05:17:54.542Z,11.32
2023-04-12T05:20:21.398Z,10.63
2023-04-12T05:22:48.190Z,10.82
2023-04-12T05:25:14.941Z,10.05
2023-04-12T05:27:41.699Z,10.82
2023-04-12T05:30:09.222Z,11.00
2023-04-12T05:32:36.064Z,10.55
2023-04-12T05:35:02.878Z,10.25
2023-04-12T05:37:29.701Z,10.50
2023-04-12T05:39:56.521Z,9.75
2023-04-12T05:42:23.224Z,10.90
2023-04-12T05:44:50.900Z,10.18
2023-04-12T05:47:17.560Z,10.52
2023-04-12T05:49:44.235Z,10.05
2023-04-12T05:52:11.090Z,10.52
2023-04-12T05:54:37.815Z,10.55
2023-04-12T05:57:04.618Z,10.63
2023-04-12T05:59:31.651Z,10.45
2023-04-12T06:01:59.143Z,10.10
2023-04-12T06:04:38.433Z,10.35
2023-04-12T06:07:16.463Z,10.25
2023-04-12T06:09:43.156Z,10.35
2023-04-12T06:12:09.848Z,10.13
2023-04-12T06:14:36.616Z,10.20
2023-04-12T06:17:03.365Z,10.63
2023-04-12T06:19:30.109Z,9.50
2023-04-12T06:21:57.122Z,11.02
2023-04-12T06:24:23.879Z,11.20
2023-04-12T06:26:50.683Z,10.45
2023-04-12T06:29:17.657Z,9.73
2023-04-12T06:31:44.533Z,10.23
2023-04-12T06:34:11.382Z,10.27
2023-04-12T06:36:40.187Z,11.10
2023-04-12T06:39:07.943Z,10.73
2023-04-12T06:41:34.670Z,10.82
2023-04-12T06:44:01.448Z,10.30
2023-04-12T06:46:28.904Z,10.82
2023-04-12T06:48:55.690Z,10.70
2023-04-12T06:51:22.573Z,11.07
2023-04-12T06:53:49.299Z,10.57
2023-04-12T06:56:18.339Z,10.27
2023-04-12T06:58:45.818Z,9.60
2023-04-12T07:01:13.553Z,10.80
2023-04-12T07:03:40.812Z,11.80
2023-04-12T07:06:17.606Z,9.73
2023-04-12T07:08:51.065Z,11.98
2023-04-12T07:11:21.598Z,11.15
2023-04-12T07:13:49.385Z,10.32
2023-04-12T07:16:16.671Z,10.80
2023-04-12T07:18:43.738Z,10.27
2023-04-12T07:21:14.231Z,10.32
2023-04-12T07:23:41.227Z,10.65
2023-04-12T07:26:08.294Z,10.65
2023-04-12T07:28:36.193Z,11.02
2023-04-12T07:31:06.282Z,10.93
2023-04-12T07:33:34.930Z,10.40
2023-04-12T07:36:02.436Z,9.60
2023-04-12T07:38:29.341Z,10.60
2023-04-12T07:40:57.266Z,11.25
2023-04-12T07:43:24.360Z,10.35
2023-04-12T07:45:51.960Z,9.00
2023-04-12T07:48:18.827Z,10.32
2023-04-12T07:50:45.618Z,11.07
2023-04-12T07:53:26.837Z,10.93
2023-04-12T07:55:54.677Z,10.20
2023-04-12T07:58:23.068Z,8.68
2023-04-12T08:00:50.843Z,10.90
2023-04-12T08:03:18.789Z,11.15
2023-04-12T08:05:46.636Z,10.30
2023-04-12T08:08:13.339Z,10.70
2023-04-12T08:10:40.828Z,10.38
2023-04-12T08:13:07.873Z,9.82
2023-04-12T08:15:34.755Z,10.80
2023-04-12T08:18:02.547Z,10.90
2023-04-12T08:20:29.548Z,11.20
2023-04-12T08:22:56.586Z,9.55
2023-04-12T08:25:24.326Z,10.38
2023-04-12T08:27:51.475Z,10.95
2023-04-12T08:30:18.869Z,10.68
2023-04-12T08:32:45.885Z,10.50
2023-04-12T08:35:14.981Z,10.70
2023-04-12T08:37:42.331Z,10.40
2023-04-12T08:40:09.394Z,10.80
2023-04-12T08:42:37.281Z,10.38
2023-04-12T08:45:12.122Z,10.15
2023-04-12T08:47:43.793Z,9.07
2023-04-12T08:50:13.872Z,9.20
2023-04-12T08:52:42.017Z,9.48
2023-04-12T08:55:11.219Z,8.57
2023-04-12T08:57:41.262Z,8.48
2023-04-12T09:00:13.086Z,8.05
2023-04-12T09:02:43.376Z,7.35
2023-04-12T09:05:10.418Z,8.13
2023-04-12T09:07:37.157Z,7.88
2023-04-12T09:10:04.818Z,7.93
2023-04-12T09:12:31.900Z,8.55
2023-04-12T09:15:15.712Z,9.52
2023-04-12T09:17:42.878Z,8.57
2023-04-12T09:20:12.580Z,8.32
2023-04-12T09:22:44.643Z,8.73
2023-04-12T09:25:15.215Z,8.30
2023-04-12T09:27:54.165Z,8.52
2023-04-12T09:30:21.179Z,8.10
2023-04-12T09:32:49.514Z,8.45
2023-04-12T09:35:16.783Z,8.38
2023-04-12T09:37:43.744Z,8.88
2023-04-12T09:40:11.198Z,8.38
2023-04-12T09:42:52.583Z,9.07
2023-04-12T09:45:25.456Z,8.60
2023-04-12T09:47:53.634Z,8.68
2023-04-12T09:50:25.804Z,8.52
2023-04-12T09:52:54.422Z,8.80
2023-04-12T09:55:29.004Z,8.52
2023-04-12T09:57:56.797Z,8.30
2023-04-12T10:00:26.815Z,8.88
2023-04-12T10:02:55.688Z,8.05
2023-04-12T10:05:26.696Z,8.77
2023-04-12T10:07:55.254Z,8.50
2023-04-12T10:10:23.109Z,8.82
2023-04-12T10:12:50.691Z,8.70
2023-04-12T10:15:18.557Z,8.63
2023-04-12T10:17:52.082Z,8.20
2023-04-12T10:20:20.527Z,8.20
2023-04-12T10:22:49.876Z,9.27
2023-04-12T10:25:25.656Z,9.05
2023-04-12T10:27:53.008Z,8.40
2023-04-12T10:30:23.841Z,8.75
2023-04-12T10:33:02.702Z,8.80
2023-04-12T10:35:30.894Z,10.25
2023-04-12T10:38:00.284Z,8.43
2023-04-12T10:40:31.812Z,8.88
2023-04-12T10:43:23.197Z,9.43
2023-04-12T10:45:50.554Z,8.73
2023-04-12T10:48:37.874Z,8.80
2023-04-12T10:51:18.197Z,10.10
2023-04-12T10:53:46.884Z,9.50
2023-04-12T10:56:32.667Z,10.02
2023-04-12T10:59:04.303Z,9.93
2023-04-12T11:01:31.934Z,10.00
2023-04-12T11:04:09.197Z,9.52
2023-04-12T11:06:53.409Z,10.18
2023-04-12T11:09:30.277Z,10.10
2023-04-12T11:12:04.093Z,10.32
2023-04-12T11:14:52.148Z,9.93
2023-04-12T11:17:18.858Z,10.02
2023-04-12T11:19:57.348Z,9.80
2023-04-12T11:22:27.446Z,10.80
2023-04-12T11:24:56.761Z,9.80
2023-04-12T11:27:24.957Z,8.57
2023-04-12T11:29:54.597Z,8.80
2023-04-12T11:32:23.384Z,8.82
2023-04-12T11:34:50.420Z,8.75
2023-04-12T11:37:20.421Z,8.93
2023-04-12T11:39:48.625Z,8.95
2023-04-12T11:42:29.621Z,10.73
2023-04-12T11:44:59.846Z,9.57
2023-04-12T11:47:30.496Z,8.55
2023-04-12T11:49:59.220Z,8.32
2023-04-12T11:52:31.488Z,9.20
2023-04-12T11:55:01.853Z,8.40
2023-04-12T11:57:28.981Z,8.00
2023-04-12T11:59:58.664Z,7.07
2023-04-12T12:02:28.749Z,8.48
2023-04-12T12:04:57.760Z,7.93
2023-04-12T12:07:25.185Z,7.72
2023-04-12T12:09:52.113Z,6.95
2023-04-12T12:12:18.980Z,8.32
2023-04-12T12:14:47.498Z,8.85
2023-04-12T12:17:17.058Z,8.90
2023-04-12T12:19:46.414Z,9.13
2023-04-12T12:22:20.046Z,8.80
2023-04-12T12:24:49.958Z,9.05
2023-04-12T12:27:24.836Z,8.65
2023-04-12T12:29:55.234Z,8.18
2023-04-12T12:32:23.616Z,8.13
2023-04-12T12:34:54.864Z,8.88
2023-04-12T12:37:25.541Z,7.95
2023-04-12T12:40:15.502Z,7.78
2023-04-12T12:42:54.750Z,7.57
2023-04-12T12:45:23.960Z,8.07
2023-04-12T12:48:00.742Z,7.53
2023-04-12T12:50:29.937Z,8.35
2023-04-12T12:52:57.495Z,7.78
2023-04-12T12:55:24.586Z,7.88
2023-04-12T12:58:07.537Z,8.68
2023-04-12T13:00:35.536Z,9.07
2023-04-12T13:03:03.255Z,8.10
2023-04-12T13:05:30.816Z,7.93
2023-04-12T13:07:57.518Z,8.82
2023-04-12T13:10:26.560Z,7.90
2023-04-12T13:12:53.636Z,8.43
2023-04-12T13:15:23.954Z,8.68
2023-04-12T13:17:55.858Z,8.45
2023-04-12T13:20:23.281Z,9.15
2023-04-12T13:22:52.049Z,7.90
2023-04-12T13:25:22.273Z,8.40
2023-04-12T13:27:49.666Z,7.90
2023-04-12T13:30:17.429Z,7.93
2023-04-12T13:32:46.975Z,7.97
2023-04-12T13:35:13.774Z,8.63
2023-04-12T13:37:40.535Z,8.93
2023-04-12T13:40:08.089Z,8.32
2023-04-12T13:42:34.822Z,8.10
2023-04-12T13:45:01.876Z,8.25
2023-04-12T13:47:28.782Z,8.88
2023-04-12T13:49:55.679Z,7.88
2023-04-12T13:52:22.654Z,8.25
2023-04-12T13:54:49.468Z,8.45
2023-04-12T13:57:16.311Z,8.50
2023-04-12T13:59:43.011Z,9.07
2023-04-12T14:02:09.864Z,8.27
2023-04-12T14:04:36.812Z,8.27
2023-04-12T14:07:03.565Z,8.15
2023-04-12T14:09:32.299Z,8.18
2023-04-12T14:12:01.672Z,8.90
2023-04-12T14:14:28.535Z,8.38
2023-04-12T14:16:59.142Z,8.10
2023-04-12T14:19:26.475Z,8.02
2023-04-12T14:21:53.658Z,8.95
2023-04-12T14:24:21.346Z,8.90
2023-04-12T14:26:50.065Z,8.00
2023-04-12T14:29:17.288Z,7.78
2023-04-12T14:31:44.212Z,8.68
2023-04-12T14:34:13.401Z,7.38
2023-04-12T14:36:40.311Z,9.00
2023-04-12T14:39:10.484Z,8.25
2023-04-12T14:41:38.563Z,8.57
2023-04-12T14:44:05.561Z,8.85
2023-04-12T14:46:32.748Z,7.93
2023-04-12T14:49:01.297Z,9.82
2023-04-12T14:51:29.202Z,8.80
2023-04-12T14:53:56.710Z,9.20
2023-04-12T14:56:27.854Z,8.48
2023-04-12T14:58:56.521Z,8.32
2023-04-12T15:01:25.420Z,8.77
2023-04-12T15:03:53.456Z,8.57
2023-04-12T15:06:22.974Z,8.43
2023-04-12T15:08:57.335Z,8.20
2023-04-12T15:11:26.703Z,7.68
2023-04-12T15:13:54.907Z,7.82
2023-04-12T15:16:22.556Z,8.38
2023-04-12T15:18:51.329Z,8.38
2023-04-12T15:21:18.349Z,8.10
2023-04-12T15:23:45.431Z,9.10
2023-04-12T15:26:14.045Z,9.88
2023-04-12T15:28:40.963Z,9.70
2023-04-12T15:31:09.152Z,9.32
2023-04-12T15:33:36.581Z,8.90
2023-04-12T15:36:04.709Z,9.02
2023-04-12T15:38:31.739Z,9.32
2023-04-12T15:41:01.359Z,8.88
2023-04-12T15:43:28.732Z,11.02
2023-04-12T15:45:56.247Z,10.98
2023-04-12T15:48:25.258Z,10.02
2023-04-12T15:50:53.696Z,10.98
2023-04-12T15:53:23.267Z,11.35
2023-04-12T15:55:54.225Z,10.32
2023-04-12T15:58:25.370Z,11.57
2023-04-12T16:00:54.173Z,10.50
2023-04-12T16:03:26.246Z,10.85
2023-04-12T16:05:54.207Z,12.20
2023-04-12T16:08:22.101Z,11.77
2023-04-12T16:10:50.479Z,12.02
2023-04-12T16:13:17.332Z,13.85
2023-04-12T16:15:44.310Z,12.68
2023-04-12T16:18:11.214Z,12.70
2023-04-12T16:20:39.395Z,13.10
2023-04-12T16:23:06.476Z,12.02
2023-04-12T16:25:34.169Z,12.43
2023-04-12T16:28:02.728Z,11.68
2023-04-12T16:30:32.819Z,13.13
2023-04-12T16:32:59.850Z,12.60
2023-04-12T16:35:26.831Z,12.05
2023-04-12T16:37:54.577Z,13.07
2023-04-12T16:40:22.192Z,11.57
2023-04-12T16:42:49.091Z,12.02
2023-04-12T16:45:15.893Z,11.73
2023-04-12T16:47:42.885Z,12.63
2023-04-12T16:50:10.283Z,12.25
2023-04-12T16:52:38.130Z,12.23
2023-04-12T16:55:05.839Z,11.93
2023-04-12T16:57:33.834Z,11.70
2023-04-12T17:00:00.676Z,12.93
2023-04-12T17:02:27.671Z,11.15
2023-04-12T17:04:54.770Z,11.32
2023-04-12T17:07:21.732Z,11.80
2023-04-12T17:09:48.434Z,11.60
2023-04-12T17:12:15.138Z,11.25
2023-04-12T17:14:41.967Z,11.45
2023-04-12T17:17:08.766Z,10.88
2023-04-12T17:19:35.980Z,11.32
2023-04-12T17:22:02.788Z,10.82
2023-04-12T17:24:29.677Z,10.82
2023-04-12T17:26:57.240Z,11.05
2023-04-12T17:29:24.621Z,10.60
2023-04-12T17:31:54.185Z,10.85
2023-04-12T17:34:22.189Z,9.88
2023-04-12T17:36:49.166Z,10.18
2023-04-12T17:39:16.371Z,10.00
2023-04-12T17:41:43.473Z,9.80
2023-04-12T17:44:10.277Z,10.30
2023-04-12T17:46:37.337Z,11.25
2023-04-12T17:49:05.991Z,11.55
2023-04-12T17:51:33.402Z,12.32
2023-04-12T17:54:00.768Z,12.43
2023-04-12T17:56:28.169Z,12.52
2023-04-12T17:58:55.467Z,12.30
2023-04-12T18:01:22.731Z,14.10
2023-04-12T18:03:50.156Z,14.00
2023-04-12T18:06:18.685Z,14.73
2023-04-12T18:08:46.973Z,15.52
2023-04-12T18:11:14.723Z,14.82
2023-04-12T18:13:41.956Z,14.82
2023-04-12T18:16:09.036Z,15.75
2023-04-12T18:18:36.271Z,16.50
2023-04-12T18:21:04.709Z,16.58
2023-04-12T18:23:31.692Z,15.02
2023-04-12T18:25:58.517Z,16.67
2023-04-12T18:28:25.339Z,15.85
2023-04-12T18:30:52.126Z,15.98
2023-04-12T18:33:18.929Z,15.13
2023-04-12T18:35:45.695Z,15.75
2023-04-12T18:38:12.496Z,14.55
2023-04-12T18:40:39.524Z,15.02
2023-04-12T18:43:06.480Z,15.35
2023-04-12T18:45:37.805Z,16.65
2023-04-12T18:48:05.123Z,16.85
2023-04-12T18:50:31.991Z,17.58
2023-04-12T18:52:58.955Z,17.98
2023-04-12T18:55:26.288Z,19.40
2023-04-12T18:57:53.340Z,17.95
2023-04-12T19:00:21.524Z,18.70
2023-04-12T19:02:49.787Z,17.85
2023-04-12T19:05:18.751Z,19.08
2023-04-12T19:07:46.926Z,18.92
2023-04-12T19:10:15.064Z,17.88
2023-04-12T19:12:43.425Z,19.85
2023-04-12T19:15:12.169Z,19.45
2023-04-12T19:17:41.580Z,19.25
2023-04-12T19:20:12.029Z,20.70
2023-04-12T19:22:43.161Z,20.42
2023-04-12T19:25:19.586Z,19.70
2023-04-12T19:27:49.024Z,20.58
2023-04-12T19:30:18.776Z,20.25
2023-04-12T19:32:47.935Z,20.23
2023-04-12T19:35:18.147Z,20.25
2023-04-12T19:37:53.036Z,18.55
2023-04-12T19:40:25.456Z,19.83
2023-04-12T19:42:54.873Z,19.17
2023-04-12T19:45:29.509Z,20.55
2023-04-12T19:47:58.014Z,18.45
2023-04-12T19:50:27.880Z,19.17
2023-04-12T19:52:58.379Z,19.80
2023-04-12T19:55:32.530Z,19.77
2023-04-12T19:58:01.772Z,18.63
2023-04-12T20:00:32.551Z,19.30
2023-04-12T20:03:02.003Z,19.67
2023-04-12T20:05:31.628Z,19.27
2023-04-12T20:08:11.943Z,19.08
2023-04-12T20:10:45.834Z,19.33
2023-04-12T20:13:15.928Z,18.33
2023-04-12T20:15:44.454Z,18.42
2023-04-12T20:18:14.902Z,17.40
2023-04-12T20:20:45.443Z,18.17
2023-04-12T20:25:56.678Z,17.88
2023-04-12T20:28:29.735Z,17.55
2023-04-12T20:31:03.541Z,17.35
2023-04-12T20:33:32.859Z,15.82
2023-04-12T20:36:02.589Z,15.18
2023-04-12T20:38:31.084Z,15.10
2023-04-12T20:41:02.675Z,14.23
2023-04-12T20:43:32.173Z,14.02
2023-04-12T20:46:02.291Z,13.45
2023-04-12T20:48:32.744Z,12.68
2023-04-12T20:51:01.309Z,12.85
2023-04-12T20:53:31.359Z,13.60
2023-04-12T20:55:59.850Z,12.75
2023-04-12T20:58:35.425Z,13.05
2023-04-12T21:03:34.875Z,12.98
2023-04-12T21:06:02.845Z,12.85
2023-04-12T21:08:31.644Z,13.30
2023-04-12T21:10:59.842Z,12.52
2023-04-12T21:13:27.953Z,14.02
2023-04-12T21:15:55.127Z,13.07
2023-04-12T21:18:22.547Z,14.30
2023-04-12T21:20:51.135Z,14.32
2023-04-12T21:23:19.504Z,14.00
2023-04-12T21:25:50.786Z,13.68
2023-04-12T21:28:18.183Z,14.10
2023-04-12T21:30:46.210Z,14.70
2023-04-12T21:33:13.712Z,15.57
2023-04-12T21:35:40.974Z,14.55
2023-04-12T21:38:08.402Z,14.70
2023-04-12T21:40:35.053Z,14.35
2023-04-12T21:43:02.098Z,15.20
2023-04-12T21:45:29.098Z,15.98
2023-04-12T21:47:56.243Z,15.52
2023-04-12T21:50:23.261Z,16.42
2023-04-12T21:52:49.923Z,16.58
2023-04-12T21:55:16.785Z,18.20
2023-04-12T21:57:44.061Z,18.48
2023-04-12T22:00:11.453Z,18.35
2023-04-12T22:02:38.457Z,18.33
2023-04-12T22:05:05.664Z,19.77
2023-04-12T22:07:33.471Z,19.98
2023-04-12T22:10:01.833Z,19.60
2023-04-12T22:12:28.661Z,20.20
2023-04-12T22:14:57.578Z,20.60
2023-04-12T22:17:24.626Z,21.98
2023-04-12T22:19:55.050Z,21.80
2023-04-12T22:22:22.096Z,22.10
2023-04-12T22:24:48.794Z,21.45
2023-04-12T22:27:16.609Z,21.90
2023-04-12T22:29:43.610Z,23.08
2023-04-12T22:32:10.392Z,21.67
2023-04-12T22:34:37.265Z,22.65
2023-04-12T22:37:04.423Z,22.25
2023-04-12T22:39:34.028Z,22.23
2023-04-12T22:42:00.888Z,23.23
2023-04-12T22:44:29.101Z,22.90
2023-04-12T22:46:56.717Z,22.58
2023-04-12T22:49:27.208Z,23.58
2023-04-12T22:51:57.741Z,23.70
2023-04-12T22:54:25.406Z,23.58
2023-04-12T22:56:52.648Z,23.60
2023-04-12T22:59:20.150Z,22.70
2023-04-12T23:01:47.524Z,23.58
2023-04-12T23:04:16.121Z,23.65
2023-04-12T23:06:44.215Z,23.88
2023-04-12T23:09:12.508Z,23.52
2023-04-12T23:11:41.071Z,24.02
2023-04-12T23:14:09.707Z,24.05
2023-04-12T23:16:42.488Z,24.45
2023-04-12T23:19:09.458Z,24.48
2023-04-12T23:21:37.160Z,21.73
2023-04-12T23:24:05.137Z,24.58
2023-04-12T23:26:34.475Z,24.38
2023-04-12T23:29:04.573Z,25.25
2023-04-12T23:31:34.307Z,23.80
2023-04-12T23:34:02.801Z,22.90
2023-04-12T23:36:30.260Z,24.20
2023-04-12T23:39:00.159Z,24.67
2023-04-12T23:41:31.533Z,25.73
2023-04-12T23:43:59.433Z,24.05
2023-04-12T23:46:26.898Z,24.52
2023-04-12T23:48:53.707Z,24.00
2023-04-12T23:51:21.106Z,25.52
2023-04-12T23:53:47.825Z,24.73
2023-04-12T23:56:14.580Z,26.52
2023-04-12T23:58:41.500Z,25.75
